Terminal Aerodrome Forecast
Issued by NWS

Home | Current Version | Previous Version | Text Only | Print | Product List | Glossary On
Versions: 1 2 3 4 5 6 7 8 9 10 11 12 13 14 15 16 17 18 19 20 21 22 23 24 25 26 27 28 29 30 31 32
142
FTUS44 KFWD 172326 CCA
TAFGKY
TAF COR
KGKY 172326Z 1800/1824 14004KT P6SM SCT012 OVC200
      TEMPO 1802/1803 BKN012 OVC200
     FM180300 12004KT 5SM BR OVC008
     FM181600 14005KT P6SM BKN012
     FM182200 15005KT P6SM BKN022=

USA.gov is the U.S. government's official web portal to all federal, state and local government web resources and services.